createdAt,value
2023-04-22T00:00:28.929Z,100895.25
2023-04-22T00:01:31.536Z,100888.31
2023-04-22T00:02:37.507Z,100884.16
2023-04-22T00:03:42.492Z,100892.50
2023-04-22T00:04:47.158Z,100891.59
2023-04-22T00:05:50.230Z,100888.44
2023-04-22T00:06:53.931Z,100886.69
2023-04-22T00:07:56.591Z,100886.44
2023-04-22T00:09:00.261Z,100888.03
2023-04-22T00:10:02.649Z,100887.72
2023-04-22T00:11:08.031Z,100885.34
2023-04-22T00:12:11.953Z,100891.09
2023-04-22T00:13:15.791Z,100887.47
2023-04-22T00:14:18.644Z,100895.13
2023-04-22T00:15:22.500Z,100887.19
2023-04-22T00:16:26.488Z,100891.47
2023-04-22T00:17:31.160Z,100895.38
2023-04-22T00:18:35.771Z,100888.25
2023-04-22T00:19:39.807Z,100891.16
2023-04-22T00:20:44.134Z,100882.16
2023-04-22T00:21:48.078Z,100886.16
2023-04-22T00:22:51.243Z,100889.06
2023-04-22T00:23:55.476Z,100890.91
2023-04-22T00:24:58.354Z,100885.84
2023-04-22T00:26:02.531Z,100884.25
2023-04-22T00:27:07.084Z,100894.28
2023-04-22T00:28:11.416Z,100891.59
2023-04-22T00:29:15.034Z,100894.56
2023-04-22T00:30:20.925Z,100900.09
2023-04-22T00:31:24.376Z,100893.22
2023-04-22T00:32:29.044Z,100893.44
2023-04-22T00:33:32.538Z,100891.94
2023-04-22T00:34:37.493Z,100901.66
2023-04-22T00:35:40.794Z,100898.28
2023-04-22T00:36:45.429Z,100895.94
2023-04-22T00:37:50.249Z,100898.84
2023-04-22T00:38:55.171Z,100894.25
2023-04-22T00:39:58.358Z,100897.34
2023-04-22T00:41:04.001Z,100895.91
2023-04-22T00:42:08.869Z,100891.44
2023-04-22T00:43:14.014Z,100892.69
2023-04-22T00:44:17.815Z,100893.75
2023-04-22T00:45:23.341Z,100891.75
2023-04-22T00:46:26.570Z,100893.25
2023-04-22T00:47:32.632Z,100894.56
2023-04-22T00:48:37.207Z,100890.34
2023-04-22T00:49:41.336Z,100895.69
2023-04-22T00:50:44.077Z,100895.09
2023-04-22T00:51:48.109Z,100887.91
2023-04-22T00:52:50.828Z,100894.31
2023-04-22T00:53:54.355Z,100897.59
2023-04-22T00:54:57.112Z,100896.88
2023-04-22T00:56:01.080Z,100896.22
2023-04-22T00:57:05.666Z,100890.88
2023-04-22T00:58:12.291Z,100891.06
2023-04-22T00:59:15.349Z,100894.31
2023-04-22T01:00:20.362Z,100894.94
2023-04-22T01:01:23.808Z,100893.06
2023-04-22T01:02:27.860Z,100898.63
2023-04-22T01:03:31.568Z,100893.13
2023-04-22T01:04:36.268Z,100891.94
2023-04-22T01:05:42.427Z,100900.06
2023-04-22T01:06:46.818Z,100894.56
2023-04-22T01:07:50.055Z,100884.06
2023-04-22T01:08:53.783Z,100893.25
2023-04-22T01:09:57.531Z,100899.16
2023-04-22T01:11:01.544Z,100894.50
2023-04-22T01:12:04.412Z,100892.59
2023-04-22T01:13:08.205Z,100897.03
2023-04-22T01:14:12.229Z,100892.53
2023-04-22T01:15:16.074Z,100895.97
2023-04-22T01:16:20.009Z,100893.63
2023-04-22T01:17:24.944Z,100893.34
2023-04-22T01:18:27.676Z,100894.91
2023-04-22T01:19:31.349Z,100897.25
2023-04-22T01:20:35.043Z,100895.13
2023-04-22T01:21:41.017Z,100895.22
2023-04-22T01:22:45.961Z,100893.56
2023-04-22T01:23:52.419Z,100893.25
2023-04-22T01:24:55.548Z,100891.31
2023-04-22T01:25:59.562Z,100898.13
2023-04-22T01:27:02.362Z,100891.78
2023-04-22T01:28:06.736Z,100890.72
2023-04-22T01:29:09.506Z,100891.03
2023-04-22T01:30:14.068Z,100890.63
2023-04-22T01:31:16.892Z,100897.28
2023-04-22T01:32:21.319Z,100901.00
2023-04-22T01:33:24.583Z,100896.66
2023-04-22T01:34:30.220Z,100896.66
2023-04-22T01:35:37.347Z,100900.34
2023-04-22T01:36:43.821Z,100894.97
2023-04-22T01:37:46.878Z,100898.03
2023-04-22T01:38:52.780Z,100899.03
2023-04-22T01:39:56.056Z,100899.06
2023-04-22T01:40:59.551Z,100898.19
2023-04-22T01:42:03.564Z,100899.34
2023-04-22T01:43:07.451Z,100901.50
2023-04-22T01:44:10.222Z,100897.78
2023-04-22T01:45:15.236Z,100898.00
2023-04-22T01:46:18.394Z,100897.75
2023-04-22T01:47:22.161Z,100905.94
2023-04-22T01:48:24.834Z,100906.44
2023-04-22T01:49:28.693Z,100903.72
2023-04-22T01:50:31.246Z,100904.53
2023-04-22T01:51:35.510Z,100908.16
2023-04-22T01:52:37.965Z,100901.06
2023-04-22T01:53:41.659Z,100905.34
2023-04-22T01:54:45.922Z,100909.53
2023-04-22T01:55:49.886Z,100910.81
2023-04-22T01:56:53.941Z,100906.66
2023-04-22T01:57:57.760Z,100907.25
2023-04-22T01:59:00.385Z,100908.84
2023-04-22T02:00:04.952Z,100906.72
2023-04-22T02:01:09.121Z,100905.69
2023-04-22T02:02:12.679Z,100907.28
2023-04-22T02:03:15.775Z,100898.69
2023-04-22T02:04:19.491Z,100901.63
2023-04-22T02:05:22.140Z,100901.66
2023-04-22T02:06:26.246Z,100893.00
2023-04-22T02:07:29.229Z,100899.75
2023-04-22T02:08:33.209Z,100902.66
2023-04-22T02:09:35.594Z,100898.00
2023-04-22T02:10:41.578Z,100899.59
2023-04-22T02:11:44.216Z,100896.47
2023-04-22T02:12:48.093Z,100894.09
2023-04-22T02:13:51.168Z,100902.78
2023-04-22T02:14:54.667Z,100902.00
2023-04-22T02:15:57.394Z,100894.88
2023-04-22T02:17:02.514Z,100896.72
2023-04-22T02:18:05.126Z,100904.63
2023-04-22T02:19:09.052Z,100896.72
2023-04-22T02:20:13.276Z,100903.56
2023-04-22T02:21:17.042Z,100904.63
2023-04-22T02:22:19.646Z,100909.91
2023-04-22T02:23:23.910Z,100906.75
2023-04-22T02:24:27.162Z,100906.97
2023-04-22T02:25:32.161Z,100903.53
2023-04-22T02:26:36.674Z,100908.03
2023-04-22T02:27:40.729Z,100909.34
2023-04-22T02:28:43.468Z,100905.16
2023-04-22T02:29:47.542Z,100910.69
2023-04-22T02:30:50.117Z,100906.16
2023-04-22T02:31:53.944Z,100905.91
2023-04-22T02:32:56.684Z,100909.56
2023-04-22T02:34:00.513Z,100914.59
2023-04-22T02:35:03.553Z,100911.72
2023-04-22T02:36:07.476Z,100919.94
2023-04-22T02:37:10.080Z,100920.72
2023-04-22T02:38:14.232Z,100913.63
2023-04-22T02:39:17.103Z,100912.28
2023-04-22T02:40:20.682Z,100911.25
2023-04-22T02:41:23.252Z,100917.03
2023-04-22T02:42:28.383Z,100916.75
2023-04-22T02:43:31.294Z,100922.31
2023-04-22T02:44:35.122Z,100919.69
2023-04-22T02:45:41.354Z,100924.94
2023-04-22T02:46:45.446Z,100919.16
2023-04-22T02:47:48.426Z,100929.13
2023-04-22T02:48:52.392Z,100928.63
2023-04-22T02:49:55.559Z,100928.88
2023-04-22T02:50:59.385Z,100929.13
2023-04-22T02:52:02.171Z,100935.19
2023-04-22T02:53:05.964Z,100926.25
2023-04-22T02:54:08.922Z,100928.38
2023-04-22T02:55:12.758Z,100928.34
2023-04-22T02:56:15.562Z,100928.09
2023-04-22T02:57:19.372Z,100923.63
2023-04-22T02:58:23.636Z,100919.69
2023-04-22T02:59:27.569Z,100926.28
2023-04-22T03:00:30.255Z,100918.88
2023-04-22T03:01:34.722Z,100913.84
2023-04-22T03:02:37.873Z,100922.06
2023-04-22T03:03:41.877Z,100914.91
2023-04-22T03:04:45.281Z,100918.59
2023-04-22T03:05:48.870Z,100917.28
2023-04-22T03:06:51.237Z,100916.53
2023-04-22T03:07:54.878Z,100909.09
2023-04-22T03:08:57.494Z,100914.91
2023-04-22T03:10:01.247Z,100913.06
2023-04-22T03:11:03.551Z,100916.25
2023-04-22T03:12:07.047Z,100915.72
2023-04-22T03:13:09.806Z,100911.22
2023-04-22T03:14:14.770Z,100908.06
2023-04-22T03:15:20.478Z,100906.22
2023-04-22T03:16:25.879Z,100918.88
2023-04-22T03:17:28.564Z,100912.28
2023-04-22T03:18:32.350Z,100915.69
2023-04-22T03:19:35.241Z,100910.44
2023-04-22T03:20:40.675Z,100915.97
2023-04-22T03:21:43.592Z,100914.13
2023-04-22T03:22:47.037Z,100904.38
2023-04-22T03:23:49.399Z,100904.13
2023-04-22T03:24:53.690Z,100906.50
2023-04-22T03:25:56.328Z,100901.72
2023-04-22T03:26:59.972Z,100902.25
2023-04-22T03:28:03.632Z,100910.44
2023-04-22T03:29:06.681Z,100910.97
2023-04-22T03:30:12.281Z,100915.69
2023-04-22T03:31:15.096Z,100911.50
2023-04-22T03:32:18.942Z,100908.06
2023-04-22T03:33:21.678Z,100904.66
2023-04-22T03:34:25.726Z,100905.69
2023-04-22T03:35:28.369Z,100909.66
2023-04-22T03:36:32.226Z,100905.16
2023-04-22T03:37:35.052Z,100911.75
2023-04-22T03:38:38.895Z,100914.13
2023-04-22T03:39:42.116Z,100913.88
2023-04-22T03:40:46.241Z,100917.84
2023-04-22T03:41:50.553Z,100916.50
2023-04-22T03:42:53.287Z,100919.94
2023-04-22T03:43:58.934Z,100913.59
2023-04-22T03:45:03.149Z,100911.47
2023-04-22T03:46:08.969Z,100917.56
2023-04-22T03:47:11.848Z,100914.91
2023-04-22T03:48:15.783Z,100917.53
2023-04-22T03:49:19.351Z,100906.75
2023-04-22T03:50:23.331Z,100914.41
2023-04-22T03:51:26.030Z,100915.19
2023-04-22T03:52:29.702Z,100907.00
2023-04-22T03:53:32.302Z,100909.41
2023-04-22T03:54:36.575Z,100906.25
2023-04-22T03:55:39.273Z,100906.50
2023-04-22T03:56:43.232Z,100912.56
2023-04-22T03:57:46.098Z,100904.63
2023-04-22T03:58:49.838Z,100902.81
2023-04-22T03:59:52.672Z,100909.13
2023-04-22T04:00:56.316Z,100907.03
2023-04-22T04:02:00.395Z,100901.47
2023-04-22T04:03:04.953Z,100894.66
2023-04-22T04:04:07.789Z,100893.56
2023-04-22T04:05:12.276Z,100893.84
2023-04-22T04:06:15.143Z,100893.88
2023-04-22T04:07:19.456Z,100895.44
2023-04-22T04:08:22.479Z,100897.56
2023-04-22T04:09:26.362Z,100899.38
2023-04-22T04:10:29.308Z,100898.34
2023-04-22T04:11:33.036Z,100894.91
2023-04-22T04:12:36.178Z,100889.63
2023-04-22T04:13:41.249Z,100898.06
2023-04-22T04:14:43.865Z,100896.47
2023-04-22T04:15:48.097Z,100896.75
2023-04-22T04:16:50.845Z,100901.25
2023-04-22T04:17:57.093Z,100900.44
2023-04-22T04:18:59.914Z,100909.13
2023-04-22T04:20:04.136Z,100900.44
2023-04-22T04:21:07.149Z,100898.06
2023-04-22T04:22:11.250Z,100896.75
2023-04-22T04:23:14.170Z,100897.53
2023-04-22T04:24:18.243Z,100901.22
2023-04-22T04:25:22.066Z,100896.47
2023-04-22T04:26:27.609Z,100890.16
2023-04-22T04:27:30.438Z,100890.97
2023-04-22T04:28:35.471Z,100898.84
2023-04-22T04:29:38.395Z,100896.75
2023-04-22T04:30:43.252Z,100900.69
2023-04-22T04:31:46.243Z,100897.25
2023-04-22T04:32:50.397Z,100899.38
2023-04-22T04:33:57.511Z,100907.03
2023-04-22T04:35:02.343Z,100905.44
2023-04-22T04:36:06.136Z,100905.72
2023-04-22T04:37:10.286Z,100905.16
2023-04-22T04:38:13.200Z,100912.28
2023-04-22T04:39:19.452Z,100910.44
2023-04-22T04:40:22.842Z,100903.63
2023-04-22T04:41:28.414Z,100913.06
2023-04-22T04:42:33.604Z,100908.88
2023-04-22T04:43:37.436Z,100903.56
2023-04-22T04:44:40.686Z,100903.03
2023-04-22T04:45:48.429Z,100903.56
2023-04-22T04:46:52.895Z,100903.31
2023-04-22T04:47:55.584Z,100901.72
2023-04-22T04:49:00.711Z,100902.50
2023-04-22T04:50:04.626Z,100899.09
2023-04-22T04:51:08.278Z,100904.09
2023-04-22T04:52:12.071Z,100902.66
2023-04-22T04:53:15.910Z,100904.47
2023-04-22T04:54:18.752Z,100897.91
2023-04-22T04:55:22.789Z,100901.09
2023-04-22T04:56:25.513Z,100903.94
2023-04-22T04:57:29.307Z,100905.50
2023-04-22T04:58:32.031Z,100902.06
2023-04-22T04:59:35.566Z,100904.91
2023-04-22T05:00:38.248Z,100906.94
2023-04-22T05:01:42.030Z,100898.84
2023-04-22T05:02:45.247Z,100901.97
2023-04-22T05:03:49.152Z,100901.44
2023-04-22T05:04:53.664Z,100902.16
2023-04-22T05:05:57.984Z,100903.78
2023-04-22T05:07:00.821Z,100900.78
2023-04-22T05:08:05.063Z,100903.69
2023-04-22T05:09:08.309Z,100901.66
2023-04-22T05:10:12.930Z,100906.69
2023-04-22T05:11:15.909Z,100906.69
2023-04-22T05:12:19.484Z,100900.38
2023-04-22T05:13:22.781Z,100903.03
2023-04-22T05:14:26.815Z,100907.69
2023-04-22T05:15:30.073Z,100907.03
2023-04-22T05:16:37.123Z,100903.84
2023-04-22T05:17:40.809Z,100908.63
2023-04-22T05:18:45.883Z,100901.50
2023-04-22T05:19:48.818Z,100899.59
2023-04-22T05:20:54.299Z,100903.06
2023-04-22T05:21:56.757Z,100905.94
2023-04-22T05:23:00.324Z,100901.81
2023-04-22T05:24:03.016Z,100896.81
2023-04-22T05:25:07.492Z,100903.28
2023-04-22T05:26:10.169Z,100903.28
2023-04-22T05:27:13.874Z,100900.69
2023-04-22T05:28:16.357Z,100904.75
2023-04-22T05:29:20.879Z,100894.84
2023-04-22T05:30:24.255Z,100901.97
2023-04-22T05:31:29.282Z,100906.41
2023-04-22T05:32:32.128Z,100907.53
2023-04-22T05:33:35.810Z,100903.63
2023-04-22T05:34:38.685Z,100904.91
2023-04-22T05:35:42.486Z,100906.75
2023-04-22T05:36:46.687Z,100901.03
2023-04-22T05:37:50.666Z,100911.28
2023-04-22T05:38:53.254Z,100912.91
2023-04-22T05:39:57.099Z,100909.22
2023-04-22T05:40:59.925Z,100908.13
2023-04-22T05:42:03.952Z,100907.06
2023-04-22T05:43:06.703Z,100901.31
2023-04-22T05:44:10.528Z,100905.03
2023-04-22T05:45:13.265Z,100896.69
2023-04-22T05:46:17.045Z,100900.38
2023-04-22T05:47:19.925Z,100897.69
2023-04-22T05:48:23.568Z,100895.63
2023-04-22T05:49:26.185Z,100898.44
2023-04-22T05:50:29.778Z,100896.09
2023-04-22T05:51:33.057Z,100897.69
2023-04-22T05:52:38.122Z,100893.22
2023-04-22T05:53:40.552Z,100893.28
2023-04-22T05:54:44.073Z,100889.50
2023-04-22T05:55:46.597Z,100890.31
2023-04-22T05:56:50.212Z,100892.47
2023-04-22T05:57:53.787Z,100891.72
2023-04-22T05:58:56.332Z,100888.31
2023-04-22T06:00:01.234Z,100892.50
2023-04-22T06:01:04.047Z,100896.72
2023-04-22T06:02:07.892Z,100897.00
2023-04-22T06:03:10.691Z,100899.31
2023-04-22T06:04:14.621Z,100906.69
2023-04-22T06:05:17.722Z,100908.28
2023-04-22T06:06:21.545Z,100907.19
2023-04-22T06:07:25.228Z,100913.00
2023-04-22T06:08:31.575Z,100912.47
2023-04-22T06:09:35.278Z,100915.13
2023-04-22T06:10:37.954Z,100913.84
2023-04-22T06:11:42.256Z,100913.34
2023-04-22T06:12:45.033Z,100913.59
2023-04-22T06:13:48.881Z,100906.22
2023-04-22T06:14:52.476Z,100910.16
2023-04-22T06:15:55.010Z,100912.78
2023-04-22T06:16:58.545Z,100914.66
2023-04-22T06:18:01.095Z,100914.66
2023-04-22T06:19:04.659Z,100915.72
2023-04-22T06:20:08.298Z,100917.31
2023-04-22T06:21:11.834Z,100919.41
2023-04-22T06:22:14.328Z,100922.03
2023-04-22T06:23:17.772Z,100917.03
2023-04-22T06:24:23.562Z,100919.41
2023-04-22T06:25:26.157Z,100920.47
2023-04-22T06:26:29.716Z,100918.88
2023-04-22T06:27:32.336Z,100927.28
2023-04-22T06:28:36.155Z,100926.00
2023-04-22T06:29:39.940Z,100922.56
2023-04-22T06:30:42.890Z,100919.13
2023-04-22T06:31:46.594Z,100917.00
2023-04-22T06:32:48.993Z,100909.91
2023-04-22T06:33:52.534Z,100919.38
2023-04-22T06:34:55.010Z,100912.53
2023-04-22T06:35:58.497Z,100912.50
2023-04-22T06:37:00.877Z,100919.41
2023-04-22T06:38:04.473Z,100919.09
2023-04-22T06:39:07.492Z,100918.63
2023-04-22T06:40:13.123Z,100918.31
2023-04-22T06:41:16.144Z,100916.94
2023-04-22T06:42:19.589Z,100914.31
2023-04-22T06:43:21.997Z,100909.53
2023-04-22T06:44:26.100Z,100913.75
2023-04-22T06:45:28.565Z,100912.97
2023-04-22T06:46:32.466Z,100911.94
2023-04-22T06:47:35.079Z,100915.09
2023-04-22T06:48:40.363Z,100917.75
2023-04-22T06:49:44.000Z,100915.44
2023-04-22T06:50:47.637Z,100914.88
2023-04-22T06:51:50.059Z,100918.31
2023-04-22T06:52:53.493Z,100917.28
2023-04-22T06:53:58.340Z,100916.47
2023-04-22T06:55:03.285Z,100919.38
2023-04-22T06:56:07.507Z,100914.38
2023-04-22T06:57:11.401Z,100917.50
2023-04-22T06:58:15.263Z,100915.13
2023-04-22T06:59:17.958Z,100911.66
2023-04-22T07:00:21.577Z,100905.13
2023-04-22T07:01:24.357Z,100910.31
2023-04-22T07:02:28.134Z,100915.03
2023-04-22T07:03:31.955Z,100913.72
2023-04-22T07:04:34.632Z,100909.25
2023-04-22T07:05:39.767Z,100912.34
2023-04-22T07:06:43.611Z,100910.75
2023-04-22T07:07:47.930Z,100908.09
2023-04-22T07:08:50.588Z,100912.53
2023-04-22T07:09:54.492Z,100910.88
2023-04-22T07:10:58.094Z,100913.50
2023-04-22T07:12:03.033Z,100913.16
2023-04-22T07:13:05.926Z,100913.69
2023-04-22T07:14:09.414Z,100916.50
2023-04-22T07:15:12.154Z,100909.06
2023-04-22T07:16:15.801Z,100917.28
2023-04-22T07:17:22.152Z,100909.13
2023-04-22T07:18:25.658Z,100918.31
2023-04-22T07:19:28.037Z,100918.25
2023-04-22T07:20:31.510Z,100920.25
2023-04-22T07:21:34.236Z,100915.84
2023-04-22T07:22:38.392Z,100922.69
2023-04-22T07:23:41.114Z,100919.53
2023-04-22T07:24:44.899Z,100913.50
2023-04-22T07:25:47.522Z,100917.50
2023-04-22T07:26:51.302Z,100914.75
2023-04-22T07:27:55.413Z,100915.53
2023-04-22T07:28:59.067Z,100920.28
2023-04-22T07:30:03.480Z,100920.84
2023-04-22T07:31:06.293Z,100918.16
2023-04-22T07:32:10.488Z,100918.25
2023-04-22T07:33:13.332Z,100914.44
2023-04-22T07:34:17.566Z,100915.34
2023-04-22T07:35:20.167Z,100912.88
2023-04-22T07:36:23.894Z,100906.13
2023-04-22T07:37:26.348Z,100907.88
2023-04-22T07:38:30.009Z,100909.72
2023-04-22T07:39:32.649Z,100912.06
2023-04-22T07:40:36.278Z,100913.06
2023-04-22T07:41:38.968Z,100908.06
2023-04-22T07:42:42.470Z,100908.88
2023-04-22T07:43:46.435Z,100904.94
2023-04-22T07:44:50.192Z,100913.84
2023-04-22T07:45:52.585Z,100914.16
2023-04-22T07:46:56.661Z,100909.13
2023-04-22T07:47:59.460Z,100908.84
2023-04-22T07:49:02.829Z,100908.97
2023-04-22T07:50:06.423Z,100911.22
2023-04-22T07:51:09.958Z,100907.00
2023-04-22T07:52:12.550Z,100910.44
2023-04-22T07:53:17.703Z,100905.69
2023-04-22T07:54:20.234Z,100907.59
2023-04-22T07:55:23.861Z,100909.22
2023-04-22T07:56:26.888Z,100907.84
2023-04-22T07:57:30.634Z,100912.28
2023-04-22T07:58:33.108Z,100907.28
2023-04-22T07:59:38.118Z,100904.09
2023-04-22T08:00:41.092Z,100904.81
2023-04-22T08:01:46.433Z,100907.94
2023-04-22T08:02:49.504Z,100904.28
2023-04-22T08:03:53.360Z,100901.56
2023-04-22T08:04:56.197Z,100909.91
2023-04-22T08:05:59.854Z,100909.00
2023-04-22T08:07:17.182Z,100907.44
2023-04-22T08:08:28.213Z,100908.06
2023-04-22T08:09:32.154Z,100910.84
2023-04-22T08:10:35.661Z,100901.63
2023-04-22T08:11:38.233Z,100907.75
2023-04-22T08:12:42.375Z,100911.13
2023-04-22T08:13:46.213Z,100908.63
2023-04-22T08:14:51.294Z,100907.69
2023-04-22T08:15:53.882Z,100902.50
2023-04-22T08:16:57.924Z,100909.19
2023-04-22T08:18:01.013Z,100919.81
2023-04-22T08:19:05.094Z,100917.66
2023-04-22T08:20:09.673Z,100913.00
2023-04-22T08:21:13.253Z,100918.66
2023-04-22T08:22:16.239Z,100909.84
2023-04-22T08:23:19.761Z,100917.44
2023-04-22T08:24:22.700Z,100918.53
2023-04-22T08:25:26.447Z,100920.88
2023-04-22T08:26:29.108Z,100910.84
2023-04-22T08:27:32.700Z,100917.78
2023-04-22T08:28:35.318Z,100919.69
2023-04-22T08:29:39.254Z,100921.91
2023-04-22T08:30:43.712Z,100916.22
2023-04-22T08:31:47.492Z,100919.00
2023-04-22T08:32:50.138Z,100925.97
2023-04-22T08:33:53.931Z,100927.78
2023-04-22T08:35:03.967Z,100917.72
2023-04-22T08:36:09.298Z,100927.00
2023-04-22T08:37:11.739Z,100925.16
2023-04-22T08:38:15.867Z,100921.28
2023-04-22T08:39:19.577Z,100924.00
2023-04-22T08:40:22.377Z,100929.41
2023-04-22T08:41:26.135Z,100927.63
2023-04-22T08:42:28.659Z,100932.44
2023-04-22T08:43:33.989Z,100934.91
2023-04-22T08:44:38.548Z,100928.75
2023-04-22T08:45:43.565Z,100935.16
2023-04-22T08:46:47.239Z,100933.97
2023-04-22T08:47:51.790Z,100938.34
2023-04-22T08:48:54.753Z,100940.72
2023-04-22T08:49:59.355Z,100936.22
2023-04-22T08:51:01.944Z,100925.41
2023-04-22T08:52:05.582Z,100937.00
2023-04-22T08:53:08.237Z,100931.22
2023-04-22T08:54:12.702Z,100934.91
2023-04-22T08:55:15.230Z,100937.69
2023-04-22T08:56:18.872Z,100935.72
2023-04-22T08:57:21.892Z,100938.47
2023-04-22T08:58:25.769Z,100941.22
2023-04-22T08:59:29.129Z,100936.91
2023-04-22T09:00:34.694Z,100937.53
2023-04-22T09:01:40.572Z,100938.13
2023-04-22T09:02:47.439Z,100942.56
2023-04-22T09:03:51.084Z,100938.25
2023-04-22T09:04:54.988Z,100944.59
2023-04-22T09:05:59.959Z,100931.28
2023-04-22T09:07:04.528Z,100940.94
2023-04-22T09:08:08.294Z,100935.88
2023-04-22T09:09:11.843Z,100929.59
2023-04-22T09:10:14.658Z,100931.97
2023-04-22T09:11:19.312Z,100929.22
2023-04-22T09:12:22.366Z,100929.53
2023-04-22T09:13:27.592Z,100935.91
2023-04-22T09:14:30.709Z,100924.81
2023-04-22T09:15:34.351Z,100930.50
2023-04-22T09:16:47.032Z,100933.41
2023-04-22T09:17:53.273Z,100933.31
2023-04-22T09:18:57.167Z,100932.22
2023-04-22T09:20:00.464Z,100924.16
2023-04-22T09:21:05.937Z,100932.25
2023-04-22T09:22:10.868Z,100929.34
2023-04-22T09:23:15.057Z,100926.53
2023-04-22T09:24:18.646Z,100929.44
2023-04-22T09:25:23.873Z,100931.38
2023-04-22T09:26:27.920Z,100927.34
2023-04-22T09:27:30.571Z,100931.09
2023-04-22T09:28:38.242Z,100929.22
2023-04-22T09:29:50.413Z,100931.50
2023-04-22T09:30:54.480Z,100926.59
2023-04-22T09:31:58.781Z,100935.59
2023-04-22T09:33:04.624Z,100935.25
2023-04-22T09:34:07.917Z,100925.97
2023-04-22T09:35:11.698Z,100931.28
2023-04-22T09:36:14.210Z,100930.50
2023-04-22T09:37:21.761Z,100933.06
2023-04-22T09:38:24.255Z,100924.09
2023-04-22T09:39:28.015Z,100931.88
2023-04-22T09:40:31.873Z,100931.94
2023-04-22T09:41:37.095Z,100930.78
2023-04-22T09:42:49.130Z,100932.13
2023-04-22T09:43:53.070Z,100936.34
2023-04-22T09:44:55.845Z,100931.06
2023-04-22T09:46:01.735Z,100928.00
2023-04-22T09:47:05.884Z,100932.53
2023-04-22T09:48:11.988Z,100935.19
2023-04-22T09:49:17.086Z,100932.56
2023-04-22T09:50:22.401Z,100932.97
2023-04-22T09:51:26.144Z,100933.47
2023-04-22T09:52:29.748Z,100939.75
2023-04-22T09:53:38.008Z,100935.56
2023-04-22T09:54:51.056Z,100935.81
2023-04-22T09:55:55.168Z,100930.91
2023-04-22T09:56:59.319Z,100933.84
2023-04-22T09:58:07.334Z,100941.13
2023-04-22T09:59:10.989Z,100931.03
2023-04-22T10:00:15.715Z,100932.84
2023-04-22T10:01:19.609Z,100928.94
2023-04-22T10:02:30.937Z,100933.06
2023-04-22T10:03:34.441Z,100932.38
2023-04-22T10:04:37.396Z,100928.53
2023-04-22T10:05:42.622Z,100929.94
2023-04-22T10:06:45.294Z,100935.53
2023-04-22T10:07:49.015Z,100935.31
2023-04-22T10:08:51.627Z,100930.72
2023-04-22T10:09:55.253Z,100929.03
2023-04-22T10:10:58.686Z,100922.34
2023-04-22T10:12:01.685Z,100924.88
2023-04-22T10:13:06.707Z,100921.53
2023-04-22T10:14:11.011Z,100930.28
2023-04-22T10:15:15.088Z,100930.34
2023-04-22T10:16:20.359Z,100934.81
2023-04-22T10:17:24.440Z,100932.81
2023-04-22T10:18:30.309Z,100930.97
2023-04-22T10:19:36.476Z,100932.94
2023-04-22T10:20:41.806Z,100924.09
2023-04-22T10:21:47.336Z,100932.56
2023-04-22T10:22:54.147Z,100935.31
2023-04-22T10:24:00.222Z,100930.59
2023-04-22T10:25:02.630Z,100928.19
2023-04-22T10:26:07.045Z,100932.72
2023-04-22T10:27:16.802Z,100926.28
2023-04-22T10:28:22.698Z,100932.28
2023-04-22T10:29:38.598Z,100933.56
2023-04-22T10:30:43.406Z,100925.97
2023-04-22T10:31:52.828Z,100928.63
2023-04-22T10:32:57.111Z,100932.28
2023-04-22T10:34:12.277Z,100932.09
2023-04-22T10:35:16.678Z,100936.47
2023-04-22T10:36:21.168Z,100925.47
2023-04-22T10:37:28.650Z,100928.03
2023-04-22T10:38:34.449Z,100927.03
2023-04-22T10:39:38.565Z,100931.28
2023-04-22T10:41:00.634Z,100928.22
2023-04-22T10:42:10.359Z,100930.25
2023-04-22T10:43:14.310Z,100929.06
2023-04-22T10:44:16.776Z,100931.22
2023-04-22T10:45:20.949Z,100922.84
2023-04-22T10:46:56.659Z,100930.72
2023-04-22T10:48:04.713Z,100923.84
2023-04-22T10:49:08.086Z,100924.59
2023-04-22T10:50:19.714Z,100925.53
2023-04-22T10:51:40.899Z,100928.59
2023-04-22T10:52:47.622Z,100928.59
2023-04-22T10:53:49.995Z,100932.19
2023-04-22T10:55:01.613Z,100926.47
2023-04-22T10:56:19.626Z,100920.19
2023-04-22T10:57:22.939Z,100919.41
2023-04-22T10:58:26.873Z,100920.47
2023-04-22T10:59:29.623Z,100920.38
2023-04-22T11:00:53.071Z,100923.44
2023-04-22T11:02:01.392Z,100930.19
2023-04-22T11:03:16.949Z,100926.47
2023-04-22T11:04:23.829Z,100924.50
2023-04-22T11:05:29.237Z,100936.06
2023-04-22T11:06:31.746Z,100929.88
2023-04-22T11:07:36.500Z,100936.56
2023-04-22T11:08:45.213Z,100931.41
2023-04-22T11:09:50.782Z,100939.75
2023-04-22T11:10:55.409Z,100936.44
2023-04-22T11:12:27.318Z,100927.75
2023-04-22T11:13:31.172Z,100941.00
2023-04-22T11:14:34.232Z,100930.03
2023-04-22T11:15:39.654Z,100927.97
2023-04-22T11:16:47.238Z,100934.72
2023-04-22T11:17:53.841Z,100930.63
2023-04-22T11:18:58.031Z,100934.00
2023-04-22T11:20:00.951Z,100933.88
2023-04-22T11:21:09.002Z,100931.91
2023-04-22T11:22:13.429Z,100923.69
2023-04-22T11:23:26.667Z,100943.50
2023-04-22T11:24:29.325Z,100935.22
2023-04-22T11:25:33.153Z,100935.78
2023-04-22T11:26:37.835Z,100927.69
2023-04-22T11:27:41.200Z,100937.69
2023-04-22T11:28:47.698Z,100931.88
2023-04-22T11:30:00.814Z,100937.44
2023-04-22T11:31:06.750Z,100925.84
2023-04-22T11:32:11.471Z,100933.13
2023-04-22T11:33:17.211Z,100919.41
2023-04-22T11:34:20.106Z,100931.13
2023-04-22T11:35:25.528Z,100927.88
2023-04-22T11:36:30.543Z,100936.41
2023-04-22T11:37:40.538Z,100930.91
2023-04-22T11:38:44.076Z,100920.41
2023-04-22T11:40:05.317Z,100919.19
2023-04-22T11:41:09.959Z,100925.19
2023-04-22T11:42:13.158Z,100923.44
2023-04-22T11:43:18.833Z,100920.34
2023-04-22T11:44:25.790Z,100918.59
2023-04-22T11:45:30.397Z,100923.28
2023-04-22T11:46:38.800Z,100917.03
2023-04-22T11:47:43.052Z,100921.56
2023-04-22T11:48:45.981Z,100919.88
2023-04-22T11:50:02.176Z,100926.16
2023-04-22T11:51:12.724Z,100919.19
2023-04-22T11:52:16.684Z,100929.81
2023-04-22T11:53:21.395Z,100925.00
2023-04-22T11:54:32.331Z,100924.63
2023-04-22T11:55:37.577Z,100924.09
2023-04-22T11:56:40.248Z,100927.06
2023-04-22T11:57:44.611Z,100929.50
2023-04-22T11:58:48.226Z,100930.94
2023-04-22T12:00:01.701Z,100928.88
2023-04-22T12:01:06.031Z,100922.06
2023-04-22T12:02:09.669Z,100930.13
2023-04-22T12:03:15.977Z,100931.03
2023-04-22T12:04:22.214Z,100931.22
2023-04-22T12:05:37.737Z,100927.66
2023-04-22T12:06:41.425Z,100922.25
2023-04-22T12:07:46.388Z,100932.78
2023-04-22T12:08:50.688Z,100923.53
2023-04-22T12:09:55.712Z,100936.31
2023-04-22T12:11:01.767Z,100937.03
2023-04-22T12:12:05.001Z,100932.47
2023-04-22T12:13:09.247Z,100932.66
2023-04-22T12:14:12.448Z,100940.81
2023-04-22T12:15:18.678Z,100940.22